Time;durP1;ratioP1;P1;durP2;ratioP2;P2;SDS_P1;SDS_P2;PMS_P1;PMS_P2;Temp;Humidity;BMP_temperature;BMP_pressure;BME280_temperature;BME280_humidity;BME280_pressure;Samples;Min_cycle;Max_cycle;Signal;HPM_P1;HPM_P2
2022/10/09 00:00:36;;;;;;;5.87;5.20;;;;;;;13.13;85.85;96419.72;4996802;28;20219;-80
2022/10/09 00:03:02;;;;;;;6.20;5.27;;;;;;;13.12;86.43;96425.06;4996733;28;20204;-80
2022/10/09 00:05:30;;;;;;;6.63;5.60;;;;;;;13.13;86.01;96426.66;4994777;28;20196;-79
2022/10/09 00:07:56;;;;;;;5.73;5.13;;;;;;;13.10;85.51;96424.44;4992656;28;20207;-79
2022/10/09 00:10:23;;;;;;;5.90;5.20;;;;;;;13.04;85.75;96428.53;4994527;28;20606;-79
2022/10/09 00:12:50;;;;;;;7.90;5.30;;;;;;;13.07;85.46;96428.19;4996703;28;20207;-80
2022/10/09 00:15:16;;;;;;;7.23;5.47;;;;;;;13.12;85.01;96425.88;4996670;28;20803;-80
2022/10/09 00:17:43;;;;;;;6.70;5.40;;;;;;;13.09;84.57;96431.38;4994636;28;20199;-79
2022/10/09 00:20:11;;;;;;;7.33;5.23;;;;;;;13.12;84.30;96422.47;4995920;28;20306;-79
2022/10/09 00:22:39;;;;;;;7.63;5.33;;;;;;;13.11;84.47;96426.84;4994809;28;20215;-79
2022/10/09 00:25:07;;;;;;;7.80;5.60;;;;;;;13.02;84.29;96424.50;4996739;28;20913;-80
2022/10/09 00:27:33;;;;;;;6.17;4.87;;;;;;;13.00;84.49;96423.84;4997495;28;20227;-79
2022/10/09 00:30:00;;;;;;;9.03;5.27;;;;;;;12.93;85.04;96425.50;4993904;28;20622;-79
2022/10/09 00:32:26;;;;;;;6.43;4.80;;;;;;;12.88;85.49;96413.09;4997639;28;20192;-80
2022/10/09 00:34:53;;;;;;;6.77;5.00;;;;;;;12.92;85.39;96421.31;4996879;28;20215;-79
2022/10/09 00:37:19;;;;;;;8.13;4.73;;;;;;;12.88;85.09;96413.09;4981211;28;20200;-79
2022/10/09 00:39:47;;;;;;;11.20;4.70;;;;;;;12.94;85.20;96415.00;4980744;28;20599;-80
2022/10/09 00:42:13;;;;;;;6.10;4.43;;;;;;;12.89;85.19;96412.13;4989991;28;20220;-79
2022/10/09 00:44:50;;;;;;;5.30;4.57;;;;;;;12.86;85.29;96396.97;4995315;28;20196;-79
2022/10/09 00:47:20;;;;;;;6.77;4.47;;;;;;;12.93;85.11;96399.66;4996213;28;20196;-79
2022/10/09 00:49:48;;;;;;;7.13;4.77;;;;;;;12.95;84.09;96403.69;4997199;28;20230;-79
2022/10/09 00:52:15;;;;;;;6.20;4.33;;;;;;;13.00;82.92;96403.97;4988456;28;20200;-80
2022/10/09 00:54:42;;;;;;;4.83;4.07;;;;;;;12.93;82.08;96405.63;4996958;28;20203;-80
2022/10/09 00:57:10;;;;;;;7.53;3.97;;;;;;;12.82;83.01;96394.88;4995126;28;20683;-79
2022/10/09 00:59:37;;;;;;;5.90;4.17;;;;;;;12.72;83.44;96393.31;4996754;28;20223;-80
2022/10/09 01:02:04;;;;;;;7.03;3.97;;;;;;;12.49;84.24;96384.72;4996090;28;20227;-80
2022/10/09 01:04:31;;;;;;;5.47;4.10;;;;;;;12.36;85.18;96384.44;4996308;28;20199;-80
2022/10/09 01:07:11;;;;;;;8.07;4.13;;;;;;;12.25;86.39;96384.81;4992319;28;20227;-80
2022/10/09 01:09:42;;;;;;;5.10;4.03;;;;;;;12.26;86.65;96387.22;4991936;28;20303;-80
2022/10/09 01:12:19;;;;;;;4.57;3.87;;;;;;;12.25;87.10;96377.88;4991419;28;20218;-80
2022/10/09 01:14:56;;;;;;;6.87;4.30;;;;;;;12.28;86.15;96384.47;4995452;28;20237;-80
2022/10/09 01:17:29;;;;;;;6.37;4.50;;;;;;;12.12;86.40;96380.19;4994991;28;20195;-80
2022/10/09 01:20:11;;;;;;;7.70;4.00;;;;;;;12.04;87.42;96386.16;4995543;28;20219;-80
2022/10/09 01:22:50;;;;;;;5.27;3.90;;;;;;;12.02;87.38;96379.56;4991063;28;20195;-80
2022/10/09 01:25:22;;;;;;;7.33;3.73;;;;;;;12.13;86.69;96370.63;4994871;28;20198;-80
2022/10/09 01:27:51;;;;;;;7.43;3.90;;;;;;;12.21;86.55;96365.47;4997272;28;20204;-80
2022/10/09 01:30:17;;;;;;;8.27;4.10;;;;;;;12.08;86.17;96369.38;4989123;28;20200;-78
2022/10/09 01:32:49;;;;;;;5.17;3.67;;;;;;;11.91;87.81;96375.56;4982653;28;20206;-79
2022/10/09 01:35:17;;;;;;;5.80;3.93;;;;;;;12.03;86.84;96374.22;4998549;28;20199;-79
2022/10/09 01:37:46;;;;;;;6.27;3.63;;;;;;;12.21;86.41;96358.50;4995602;28;20199;-79
2022/10/09 01:40:16;;;;;;;5.87;3.97;;;;;;;12.29;85.82;96355.91;4997071;28;20204;-80
2022/10/09 01:42:45;;;;;;;5.00;3.50;;;;;;;12.36;85.33;96358.59;4996911;28;20765;-80
2022/10/09 01:45:13;;;;;;;5.37;3.63;;;;;;;12.31;85.32;96359.13;4997696;28;20208;-80
2022/10/09 01:47:40;;;;;;;4.60;3.50;;;;;;;12.35;84.80;96364.75;4995525;28;20586;-80
2022/10/09 01:50:15;;;;;;;5.93;3.80;;;;;;;12.27;84.35;96360.44;4996763;28;20230;-80
2022/10/09 01:52:47;;;;;;;6.70;3.93;;;;;;;12.26;84.26;96364.00;4997796;28;20639;-80
2022/10/09 01:55:24;;;;;;;4.40;3.60;;;;;;;12.31;83.92;96348.00;4996627;28;20214;-80
2022/10/09 01:57:57;;;;;;;5.13;3.40;;;;;;;12.41;83.69;96351.97;4997191;28;20202;-80
2022/10/09 02:00:26;;;;;;;6.00;3.53;;;;;;;12.36;83.45;96348.28;4996742;28;20195;-80
2022/10/09 02:02:54;;;;;;;3.90;3.50;;;;;;;12.40;83.76;96339.22;4996487;28;20466;-80
2022/10/09 02:05:24;;;;;;;6.03;4.33;;;;;;;12.42;83.65;96343.25;4995736;28;20199;-80
2022/10/09 02:07:51;;;;;;;5.43;4.00;;;;;;;12.43;83.32;96336.31;4993105;28;20231;-80
2022/10/09 02:10:20;;;;;;;5.00;3.67;;;;;;;12.39;83.27;96329.88;4991760;28;20686;-80
2022/10/09 02:12:53;;;;;;;6.63;3.70;;;;;;;12.35;83.55;96331.16;4995768;28;20203;-80
2022/10/09 02:15:20;;;;;;;8.93;4.13;;;;;;;12.28;83.86;96325.09;4994765;28;20204;-80
2022/10/09 02:17:52;;;;;;;6.00;3.90;;;;;;;12.20;84.31;96325.91;4995825;28;20210;-79
2022/10/09 02:20:25;;;;;;;5.03;3.43;;;;;;;12.19;84.70;96319.16;4994419;28;20207;-80
2022/10/09 02:22:53;;;;;;;6.07;3.80;;;;;;;12.26;84.76;96314.13;4994889;28;20214;-79
2022/10/09 02:25:20;;;;;;;4.93;3.23;;;;;;;12.27;84.17;96316.53;4994564;28;20611;-80
2022/10/09 02:27:48;;;;;;;7.27;3.67;;;;;;;12.29;84.50;96316.38;4995444;28;20203;-80
2022/10/09 02:30:16;;;;;;;4.47;3.87;;;;;;;12.28;84.00;96313.00;4995203;28;20206;-80
2022/10/09 02:32:42;;;;;;;6.13;3.90;;;;;;;12.30;83.20;96317.97;4996080;28;20206;-80
2022/10/09 02:35:10;;;;;;;5.27;4.10;;;;;;;12.36;82.93;96306.97;4995947;28;20198;-79
2022/10/09 02:37:37;;;;;;;4.93;3.70;;;;;;;12.38;82.47;96305.00;4996504;28;20206;-80
2022/10/09 02:40:04;;;;;;;6.20;4.23;;;;;;;12.37;82.48;96311.97;4987055;28;20230;-80
2022/10/09 02:42:31;;;;;;;20.47;4.77;;;;;;;12.29;83.35;96311.22;4989654;28;20216;-80
2022/10/09 02:44:57;;;;;;;5.73;4.10;;;;;;;12.22;83.54;96302.53;4987164;28;20211;-80
2022/10/09 02:47:23;;;;;;;4.40;3.97;;;;;;;12.13;83.84;96306.91;4996861;28;20206;-80
2022/10/09 02:49:50;;;;;;;9.10;4.17;;;;;;;12.13;83.73;96308.69;4995983;28;20224;-80
2022/10/09 02:52:18;;;;;;;12.57;4.80;;;;;;;12.09;83.39;96310.81;4995249;28;20191;-79
2022/10/09 02:54:44;;;;;;;5.27;4.20;;;;;;;12.09;83.83;96314.19;4995626;28;20191;-79
2022/10/09 02:57:11;;;;;;;5.33;4.27;;;;;;;12.06;83.69;96317.13;4989773;28;20199;-79
2022/10/09 02:59:37;;;;;;;5.33;4.63;;;;;;;11.98;83.81;96311.16;4994923;28;20220;-80
2022/10/09 03:02:03;;;;;;;5.43;4.20;;;;;;;11.99;84.34;96312.78;4994246;28;20829;-79
2022/10/09 03:04:30;;;;;;;6.23;4.23;;;;;;;12.04;84.12;96302.75;4994282;28;20199;-80
2022/10/09 03:06:56;;;;;;;8.00;4.60;;;;;;;12.01;84.78;96298.75;4991820;28;20199;-80
2022/10/09 03:09:24;;;;;;;4.53;4.13;;;;;;;12.14;84.56;96292.22;4993776;28;20215;-80
2022/10/09 03:11:51;;;;;;;5.07;4.40;;;;;;;12.09;83.61;96297.91;4994926;28;20203;-79
2022/10/09 03:14:17;;;;;;;11.40;5.00;;;;;;;12.03;84.14;96291.63;4993706;28;20222;-79
2022/10/09 03:16:44;;;;;;;8.80;4.60;;;;;;;12.01;84.09;96301.31;4994193;28;20199;-79
2022/10/09 03:19:10;;;;;;;7.00;4.70;;;;;;;12.01;84.45;96298.75;4994125;28;20225;-80
2022/10/09 03:21:36;;;;;;;6.33;4.20;;;;;;;12.05;84.97;96296.63;4993838;28;20590;-79
2022/10/09 03:24:03;;;;;;;6.07;4.47;;;;;;;11.91;85.62;96292.97;4993862;28;20200;-80
2022/10/09 03:26:31;;;;;;;6.97;4.70;;;;;;;11.90;85.01;96286.22;4977831;28;20557;-80
2022/10/09 03:28:57;;;;;;;5.33;4.33;;;;;;;11.89;85.67;96294.94;4977918;28;20216;-79
2022/10/09 03:31:26;;;;;;;5.33;4.30;;;;;;;11.94;85.29;96284.06;4992968;28;20195;-79
2022/10/09 03:33:52;;;;;;;8.30;5.00;;;;;;;11.76;86.50;96294.63;4994152;28;20208;-80
2022/10/09 03:36:19;;;;;;;7.93;4.50;;;;;;;11.74;86.46;96289.59;4994935;28;20214;-80
2022/10/09 03:38:45;;;;;;;5.97;4.53;;;;;;;11.77;86.13;96285.91;4994046;28;20228;-80
2022/10/09 03:41:12;;;;;;;6.37;4.70;;;;;;;11.73;86.07;96289.78;4990020;28;20227;-82
2022/10/09 03:43:39;;;;;;;6.73;4.57;;;;;;;11.79;85.99;96283.97;4993561;28;20203;-80
2022/10/09 03:46:07;;;;;;;5.63;4.40;;;;;;;11.79;86.05;96291.72;4995513;28;20202;-80
2022/10/09 03:48:35;;;;;;;8.37;4.30;;;;;;;11.87;85.96;96280.56;4995010;28;20232;-80
2022/10/09 03:51:02;;;;;;;8.23;4.23;;;;;;;11.96;84.51;96284.72;4994727;28;20200;-80
2022/10/09 03:53:29;;;;;;;7.00;4.20;;;;;;;11.83;84.79;96274.94;4978979;28;20191;-80
2022/10/09 03:55:55;;;;;;;5.97;4.30;;;;;;;11.67;85.46;96280.94;4977579;28;20200;-80
2022/10/09 03:58:21;;;;;;;5.23;4.03;;;;;;;11.69;85.98;96280.78;4993999;28;20220;-80
2022/10/09 04:00:51;;;;;;;5.53;4.40;;;;;;;11.67;85.81;96290.44;4994506;28;20207;-80
2022/10/09 04:03:18;;;;;;;8.10;4.60;;;;;;;11.64;85.54;96290.78;4993323;28;20224;-79
2022/10/09 04:05:44;;;;;;;6.43;4.00;;;;;;;11.66;85.06;96291.41;4991272;28;20214;-80
2022/10/09 04:08:11;;;;;;;6.53;4.47;;;;;;;11.67;84.80;96286.09;4993258;28;20216;-79
2022/10/09 04:10:38;;;;;;;6.50;3.80;;;;;;;11.53;86.24;96284.19;4992416;28;20210;-81
2022/10/09 04:13:04;;;;;;;7.97;5.07;;;;;;;11.42;87.38;96287.91;4996674;28;20208;-80
2022/10/09 04:15:31;;;;;;;5.37;4.03;;;;;;;11.43;85.70;96276.63;4997890;28;20211;-79
2022/10/09 04:17:58;;;;;;;4.73;3.97;;;;;;;11.41;85.76;96280.34;4995311;28;20195;-80
2022/10/09 04:20:25;;;;;;;6.37;4.30;;;;;;;11.33;86.69;96294.06;4995358;28;20799;-82
2022/10/09 04:22:51;;;;;;;6.70;4.37;;;;;;;11.33;86.77;96278.59;4993058;28;20220;-81
2022/10/09 04:25:18;;;;;;;7.80;4.37;;;;;;;11.28;86.33;96282.63;4991629;28;20204;-81
2022/10/09 04:27:44;;;;;;;4.67;3.83;;;;;;;11.23;85.81;96277.97;4995393;28;20211;-82
2022/10/09 04:30:11;;;;;;;6.03;3.80;;;;;;;11.29;86.01;96279.88;4993111;28;20223;-82
2022/10/09 04:32:38;;;;;;;6.90;4.30;;;;;;;11.25;86.27;96278.59;4995129;28;20200;-81
2022/10/09 04:35:06;;;;;;;6.23;3.70;;;;;;;11.45;85.90;96275.66;4995010;28;20287;-81
2022/10/09 04:37:34;;;;;;;4.00;3.57;;;;;;;11.39;85.44;96275.34;4995619;28;20203;-82
2022/10/09 04:40:00;;;;;;;7.10;4.27;;;;;;;11.42;85.74;96277.59;4992024;28;20216;-82
2022/10/09 04:42:27;;;;;;;7.07;4.00;;;;;;;11.43;85.53;96278.41;4994965;28;20215;-82
2022/10/09 04:44:53;;;;;;;4.70;3.70;;;;;;;11.49;85.44;96282.91;4996069;28;20203;-82
2022/10/09 04:47:20;;;;;;;4.53;3.63;;;;;;;11.45;84.12;96278.25;4995385;28;20203;-82
2022/10/09 04:49:47;;;;;;;5.17;3.77;;;;;;;11.40;85.02;96279.53;4995860;28;20216;-79
2022/10/09 04:52:14;;;;;;;7.07;4.30;;;;;;;11.39;84.42;96277.13;4996751;28;20218;-79
2022/10/09 04:54:41;;;;;;;4.10;3.70;;;;;;;11.43;84.96;96274.06;4997018;28;20675;-82
2022/10/09 04:57:07;;;;;;;6.40;3.87;;;;;;;11.57;84.34;96276.91;4994698;28;20679;-81
2022/10/09 04:59:34;;;;;;;7.27;4.10;;;;;;;11.60;83.89;96276.59;4978800;28;20704;-79
2022/10/09 05:02:00;;;;;;;5.20;3.97;;;;;;;11.48;84.05;96272.75;4983728;28;20227;-82
2022/10/09 05:04:26;;;;;;;5.37;4.17;;;;;;;11.40;84.50;96268.41;4994386;28;20202;-82
2022/10/09 05:06:53;;;;;;;7.67;4.10;;;;;;;11.32;85.32;96265.88;4992681;28;20210;-81
2022/10/09 05:09:21;;;;;;;5.33;3.67;;;;;;;11.45;84.80;96255.03;4994700;28;20223;-82
2022/10/09 05:11:47;;;;;;;5.33;4.20;;;;;;;11.40;84.09;96258.91;4992294;28;20195;-81
2022/10/09 05:14:14;;;;;;;4.67;4.00;;;;;;;11.37;83.85;96258.44;4995416;28;20212;-82
2022/10/09 05:16:40;;;;;;;4.90;4.40;;;;;;;11.21;84.67;96263.63;4994829;28;20203;-82
2022/10/09 05:19:06;;;;;;;5.33;4.17;;;;;;;11.15;85.70;96259.94;4995712;28;20215;-82
2022/10/09 05:21:35;;;;;;;5.17;4.00;;;;;;;11.22;85.54;96268.59;4997341;28;20204;-82
2022/10/09 05:24:02;;;;;;;7.70;4.17;;;;;;;11.24;84.81;96264.09;4997234;28;20219;-81
2022/10/09 05:26:29;;;;;;;5.10;4.00;;;;;;;11.16;85.14;96266.69;4990570;28;20199;-82
2022/10/09 05:28:57;;;;;;;6.93;4.23;;;;;;;11.15;85.52;96264.28;4994546;28;20223;-82
2022/10/09 05:31:25;;;;;;;4.90;4.00;;;;;;;11.04;86.04;96270.56;4993877;28;20196;-82
2022/10/09 05:33:52;;;;;;;4.53;3.77;;;;;;;11.10;85.22;96262.19;4993659;28;20217;-80
2022/10/09 05:36:19;;;;;;;7.67;3.80;;;;;;;11.18;85.37;96256.22;4995158;28;20200;-82
2022/10/09 05:38:45;;;;;;;6.47;3.70;;;;;;;11.66;98.65;96253.53;4993156;28;20225;-82
2022/10/09 05:41:14;;;;;;;4.73;3.63;;;;;;;11.88;86.94;96252.03;4992777;28;20208;-82
2022/10/09 05:43:49;;;;;;;8.50;3.70;;;;;;;12.04;86.57;96262.28;4986793;28;20211;-82
2022/10/09 05:46:17;;;;;;;5.13;3.67;;;;;;;12.00;84.54;96266.16;4992950;28;20198;-82
2022/10/09 05:48:46;;;;;;;7.13;3.83;;;;;;;12.36;88.64;96255.31;4988837;28;20591;-82
2022/10/09 05:51:14;;;;;;;3.90;3.50;;;;;;;12.45;85.10;96247.34;4977105;28;20553;-82
2022/10/09 05:53:43;;;;;;;4.23;3.43;;;;;;;12.73;82.85;96254.56;4986940;28;20787;-82
2022/10/09 05:56:14;;;;;;;5.03;3.30;;;;;;;12.87;80.11;96259.00;4991983;28;20199;-82
2022/10/09 05:58:41;;;;;;;4.47;3.33;;;;;;;13.09;79.51;96254.75;4986328;28;20223;-82
2022/10/09 06:01:09;;;;;;;4.17;3.30;;;;;;;13.24;79.37;96258.22;4989331;28;20290;-81
2022/10/09 06:03:37;;;;;;;4.20;3.37;;;;;;;13.07;75.36;96249.78;4993181;28;20301;-81
2022/10/09 06:06:05;;;;;;;4.10;3.70;;;;;;;12.86;75.60;96254.81;4996574;28;20816;-82
2022/10/09 06:08:33;;;;;;;6.77;3.80;;;;;;;12.57;76.98;96255.50;4995517;28;20227;-81
2022/10/09 06:11:08;;;;;;;5.83;3.70;;;;;;;12.37;77.79;96256.91;4996923;28;20289;-80
2022/10/09 06:13:35;;;;;;;4.03;3.63;;;;;;;11.97;79.27;96252.78;4996893;28;20350;-81
2022/10/09 06:16:01;;;;;;;9.57;6.67;;;;;;;11.89;80.14;96256.22;4995288;28;20234;-81
2022/10/09 06:18:29;;;;;;;32.80;26.27;;;;;;;11.73;80.96;96253.66;4994585;28;20691;-80
2022/10/09 06:20:57;;;;;;;10.57;8.87;;;;;;;11.73;82.64;96251.91;4994464;28;20207;-80
2022/10/09 06:23:24;;;;;;;6.67;5.10;;;;;;;11.78;82.78;96254.00;4993687;28;20220;-81
2022/10/09 06:25:52;;;;;;;4.97;4.03;;;;;;;11.73;83.25;96262.22;4993183;28;20274;-81
2022/10/09 06:28:19;;;;;;;6.87;3.93;;;;;;;11.72;83.47;96249.47;4994138;28;20331;-81
2022/10/09 06:30:45;;;;;;;5.53;4.33;;;;;;;11.63;83.73;96263.38;4994456;28;20244;-82
2022/10/09 06:33:12;;;;;;;5.10;4.17;;;;;;;11.69;84.46;96263.50;4993619;28;20204;-81
2022/10/09 06:35:41;;;;;;;4.27;3.80;;;;;;;11.73;83.90;96258.84;4993675;28;20207;-79
2022/10/09 06:38:07;;;;;;;7.87;3.90;;;;;;;11.79;83.68;96271.06;4994108;28;20729;-79
2022/10/09 06:40:35;;;;;;;5.07;4.13;;;;;;;11.74;84.48;96275.88;4994722;28;20203;-79
2022/10/09 06:43:01;;;;;;;5.33;4.73;;;;;;;11.70;84.27;96278.03;4994541;28;20714;-78
2022/10/09 06:45:28;;;;;;;5.93;4.10;;;;;;;11.72;83.94;96278.66;4993537;28;20237;-78
2022/10/09 06:47:55;;;;;;;5.77;4.03;;;;;;;11.74;84.54;96268.97;4981545;28;20195;-81
2022/10/09 06:50:22;;;;;;;4.63;3.90;;;;;;;11.65;84.28;96272.56;4995518;28;20211;-82
2022/10/09 06:52:50;;;;;;;6.37;4.13;;;;;;;11.69;84.78;96273.84;4996240;28;20242;-81
2022/10/09 06:55:17;;;;;;;8.23;4.37;;;;;;;11.75;84.75;96269.75;4991780;28;20207;-81
2022/10/09 06:57:43;;;;;;;7.73;6.80;;;;;;;11.83;84.06;96280.09;4993041;28;20200;-81
2022/10/09 07:00:11;;;;;;;43.40;34.17;;;;;;;11.81;84.24;96279.47;4993071;28;20223;-81
2022/10/09 07:02:37;;;;;;;9.13;5.87;;;;;;;11.82;83.66;96273.31;4992374;28;20221;-78
2022/10/09 07:05:05;;;;;;;7.73;4.80;;;;;;;11.75;83.83;96274.94;4993574;28;20200;-79
2022/10/09 07:07:31;;;;;;;7.57;4.13;;;;;;;11.67;84.55;96272.38;4992737;28;20207;-79
2022/10/09 07:09:59;;;;;;;5.03;3.83;;;;;;;11.77;84.64;96270.44;4989868;28;20220;-78
2022/10/09 07:12:25;;;;;;;7.90;4.43;;;;;;;11.74;84.43;96275.88;4982321;28;20199;-79
2022/10/09 07:14:52;;;;;;;5.90;3.97;;;;;;;11.67;84.84;96280.13;4992809;28;20303;-78
2022/10/09 07:17:18;;;;;;;6.07;4.30;;;;;;;11.70;85.26;96277.22;4991200;28;20213;-79
2022/10/09 07:19:45;;;;;;;4.53;3.97;;;;;;;11.68;84.77;96279.16;4989076;28;20299;-79
2022/10/09 07:22:11;;;;;;;5.97;3.70;;;;;;;11.65;85.57;96280.28;4992874;28;20679;-81
2022/10/09 07:24:38;;;;;;;7.03;3.87;;;;;;;11.70;85.15;96282.38;4992921;28;20671;-82
2022/10/09 07:27:05;;;;;;;6.23;4.13;;;;;;;11.77;84.81;96280.75;4993114;28;20207;-82
2022/10/09 07:29:32;;;;;;;7.17;4.00;;;;;;;11.70;85.40;96282.38;4989270;28;20219;-81
2022/10/09 07:31:58;;;;;;;5.50;3.80;;;;;;;11.79;85.42;96288.34;4992043;28;20472;-81
2022/10/09 07:34:25;;;;;;;4.40;3.73;;;;;;;11.65;85.73;96287.22;4990843;28;20200;-80
2022/10/09 07:36:51;;;;;;;6.23;4.67;;;;;;;11.70;85.69;96278.03;4992022;28;20199;-81
2022/10/09 07:39:18;;;;;;;4.60;3.63;;;;;;;11.60;85.56;96279.97;4993260;28;20227;-81
2022/10/09 07:41:46;;;;;;;4.63;3.90;;;;;;;11.58;87.93;96281.91;4992438;28;20207;-78
2022/10/09 07:44:14;;;;;;;6.60;3.97;;;;;;;11.66;87.70;96273.34;4994203;28;20314;-79
2022/10/09 07:46:40;;;;;;;7.30;4.20;;;;;;;11.63;87.27;96278.84;4988626;28;20233;-81
2022/10/09 07:49:07;;;;;;;4.60;4.03;;;;;;;11.70;86.78;96274.63;4996993;28;20223;-80
2022/10/09 07:51:33;;;;;;;8.17;4.10;;;;;;;11.76;86.63;96272.22;4994896;28;20210;-81
2022/10/09 07:54:01;;;;;;;5.63;4.33;;;;;;;11.89;86.30;96274.28;4995976;28;20207;-80
2022/10/09 07:56:29;;;;;;;4.83;3.97;;;;;;;12.01;86.86;96282.44;4994293;28;20195;-80
2022/10/09 07:58:58;;;;;;;6.70;4.13;;;;;;;12.18;86.34;96283.97;4994998;28;20226;-81
2022/10/09 08:01:27;;;;;;;6.53;4.17;;;;;;;12.08;85.13;96286.78;4993889;28;20207;-80
2022/10/09 08:03:54;;;;;;;5.07;4.30;;;;;;;12.04;85.76;96279.53;4994162;28;20310;-82
2022/10/09 08:06:21;;;;;;;8.17;4.67;;;;;;;12.25;85.80;96281.53;4996752;28;20195;-81
2022/10/09 08:08:50;;;;;;;5.70;4.20;;;;;;;12.46;84.51;96284.31;4996407;28;20219;-81
2022/10/09 08:11:17;;;;;;;8.17;5.50;;;;;;;12.62;83.68;96286.00;4997783;28;20195;-82
2022/10/09 08:13:47;;;;;;;7.27;5.63;;;;;;;12.69;83.84;96282.56;4997359;28;20196;-82
2022/10/09 08:16:13;;;;;;;5.23;4.37;;;;;;;12.72;83.41;96276.22;4998045;28;20265;-82
2022/10/09 08:18:41;;;;;;;5.43;4.47;;;;;;;12.78;84.06;96273.75;4998105;28;20223;-82
2022/10/09 08:21:10;;;;;;;7.60;4.60;;;;;;;12.75;83.69;96273.28;4995802;28;20192;-80
2022/10/09 08:23:37;;;;;;;6.43;4.30;;;;;;;12.79;83.88;96272.78;4997101;28;20215;-82
2022/10/09 08:26:04;;;;;;;6.03;4.10;;;;;;;12.81;83.92;96275.19;4999065;28;20784;-80
2022/10/09 08:28:31;;;;;;;6.37;4.20;;;;;;;12.82;84.05;96274.22;5004855;28;20214;-81
2022/10/09 08:30:57;;;;;;;6.00;4.63;;;;;;;12.67;84.43;96273.38;4998766;28;20538;-81
2022/10/09 08:33:24;;;;;;;5.80;4.53;;;;;;;12.64;85.51;96266.75;4998455;28;20192;-81
2022/10/09 08:35:53;;;;;;;13.73;5.93;;;;;;;12.87;85.27;96263.38;4991678;28;20202;-82
2022/10/09 08:38:19;;;;;;;13.73;6.30;;;;;;;13.01;85.15;96262.59;4998359;28;20215;-81
2022/10/09 08:40:55;;;;;;;5.60;4.30;;;;;;;13.02;83.50;96261.63;4997765;28;20195;-80
2022/10/09 08:43:30;;;;;;;6.47;4.73;;;;;;;13.04;83.29;96263.06;4997467;28;20211;-80
2022/10/09 08:45:59;;;;;;;6.53;4.73;;;;;;;13.04;83.72;96262.25;4998860;28;20250;-81
2022/10/09 08:48:27;;;;;;;6.17;4.10;;;;;;;13.06;84.55;96252.53;4998211;28;20223;-81
2022/10/09 08:50:58;;;;;;;5.93;4.40;;;;;;;13.20;84.58;96261.34;4997372;28;20206;-81
2022/10/09 08:53:34;;;;;;;12.17;4.50;;;;;;;13.18;84.30;96251.16;4998328;28;20192;-81
2022/10/09 08:56:04;;;;;;;6.90;4.60;;;;;;;13.28;84.21;96256.88;4992175;28;20199;-80
2022/10/09 08:58:33;;;;;;;53.77;44.53;;;;;;;13.20;83.04;96238.88;4996548;28;20238;-80
2022/10/09 09:01:05;;;;;;;8.10;6.40;;;;;;;13.19;82.75;96245.00;4994751;28;20187;-81
2022/10/09 09:03:49;;;;;;;4.77;4.27;;;;;;;13.11;83.16;96240.69;4995244;28;20903;-80
2022/10/09 09:06:25;;;;;;;6.10;4.90;;;;;;;13.19;83.75;96234.66;4994238;28;20188;-81
2022/10/09 09:08:57;;;;;;;8.57;5.23;;;;;;;13.30;83.88;96241.19;4989372;28;20215;-80
2022/10/09 09:11:36;;;;;;;7.40;4.73;;;;;;;13.44;84.25;96228.28;4994677;28;20196;-80
2022/10/09 09:14:19;;;;;;;6.23;4.37;;;;;;;13.67;82.42;96227.34;4995450;28;20211;-80
2022/10/09 09:16:54;;;;;;;7.40;4.67;;;;;;;13.88;82.37;96230.00;4993539;28;20211;-80
2022/10/09 09:19:37;;;;;;;5.63;4.43;;;;;;;13.80;81.93;96220.59;4992760;28;20219;-81
2022/10/09 09:22:10;;;;;;;6.20;5.20;;;;;;;13.78;81.13;96217.38;4988372;28;20203;-80
2022/10/09 09:24:40;;;;;;;7.10;4.73;;;;;;;13.79;82.38;96216.38;4994115;28;20239;-81
2022/10/09 09:27:12;;;;;;;7.30;5.27;;;;;;;13.88;82.40;96219.66;5000244;28;20195;-81
2022/10/09 09:29:43;;;;;;;11.00;7.82;;;;;;;13.98;80.62;96220.19;5000987;28;20216;-81
2022/10/09 09:32:17;;;;;;;6.07;5.10;;;;;;;14.07;80.44;96221.69;5000117;28;20659;-80
2022/10/09 09:34:44;;;;;;;8.10;4.90;;;;;;;14.24;80.29;96224.84;5001574;28;20683;-80
2022/10/09 09:37:12;;;;;;;7.28;5.20;;;;;;;14.25;80.31;96217.88;5000671;28;20691;-81
2022/10/09 09:39:40;;;;;;;6.45;5.55;;;;;;;14.25;78.67;96217.88;4996201;28;20239;-80
2022/10/09 09:42:14;;;;;;;6.15;5.40;;;;;;;14.16;77.96;96212.03;4993332;28;20203;-80
2022/10/09 09:44:49;;;;;;;7.32;5.10;;;;;;;14.18;79.79;96216.03;4992773;28;20988;-81
2022/10/09 09:47:22;;;;;;;7.77;4.80;;;;;;;14.19;78.00;96214.25;4993424;28;20191;-81
2022/10/09 09:49:57;;;;;;;5.28;4.78;;;;;;;14.06;76.90;96212.31;4992964;28;20250;-81
2022/10/09 09:52:28;;;;;;;11.60;9.68;;;;;;;14.03;76.22;96209.28;4992844;28;20210;-81
2022/10/09 09:54:57;;;;;;;6.05;5.45;;;;;;;13.98;76.29;96211.63;4994422;28;20586;-81
2022/10/09 09:57:30;;;;;;;6.55;5.22;;;;;;;13.92;76.16;96204.56;4993520;28;20270;-80
2022/10/09 10:00:19;;;;;;;5.70;5.03;;;;;;;13.92;76.13;96207.16;4988031;28;20230;-80
2022/10/09 10:02:45;;;;;;;4.78;4.32;;;;;;;14.00;76.29;96199.31;4991552;28;20818;-80
2022/10/09 10:05:21;;;;;;;4.97;4.50;;;;;;;14.01;76.30;96201.72;4993342;28;20226;-82
2022/10/09 10:07:50;;;;;;;5.43;4.70;;;;;;;13.89;75.38;96194.56;4992716;28;20200;-81
2022/10/09 10:10:19;;;;;;;7.00;4.93;;;;;;;13.91;76.15;96197.78;4991909;28;20853;-81
2022/10/09 10:12:54;;;;;;;8.40;4.47;;;;;;;14.02;76.42;96192.16;4991424;28;20191;-80
2022/10/09 10:15:24;;;;;;;6.47;4.70;;;;;;;14.03;76.67;96191.16;4991280;28;20211;-80
2022/10/09 10:17:57;;;;;;;5.18;4.68;;;;;;;13.96;77.55;96193.69;4993304;28;20218;-81
2022/10/09 10:20:25;;;;;;;5.53;4.47;;;;;;;14.00;76.47;96192.34;4990684;28;20249;-81
2022/10/09 10:22:55;;;;;;;6.53;4.65;;;;;;;14.10;76.70;96190.25;4991269;28;20203;-81
2022/10/09 10:25:24;;;;;;;5.30;4.45;;;;;;;14.02;76.79;96179.22;4990912;28;20613;-81
2022/10/09 10:27:56;;;;;;;5.88;4.57;;;;;;;14.08;76.76;96170.69;4990573;28;20207;-81
2022/10/09 10:30:22;;;;;;;4.55;4.13;;;;;;;14.29;76.32;96178.47;4991764;28;20215;-81
2022/10/09 10:32:55;;;;;;;5.10;4.13;;;;;;;14.31;76.09;96175.69;4999208;28;20199;-81
2022/10/09 10:35:26;;;;;;;5.72;3.88;;;;;;;14.39;76.33;96168.63;4998439;28;20195;-81
2022/10/09 10:38:01;;;;;;;6.10;3.92;;;;;;;14.30;76.38;96174.09;4996546;28;20227;-81
2022/10/09 10:40:31;;;;;;;4.20;3.90;;;;;;;14.33;75.82;96166.75;4997261;28;20199;-81
2022/10/09 10:43:06;;;;;;;5.88;4.22;;;;;;;14.26;77.14;96175.44;4997699;28;20202;-82
2022/10/09 10:45:39;;;;;;;4.40;3.72;;;;;;;14.35;76.23;96164.00;4997966;28;20231;-81
2022/10/09 10:48:10;;;;;;;11.13;3.70;;;;;;;14.40;75.89;96154.72;4997942;28;20388;-81
2022/10/09 10:50:46;;;;;;;4.72;3.78;;;;;;;14.44;75.51;96160.31;4997032;28;20668;-82
2022/10/09 10:53:22;;;;;;;4.10;3.53;;;;;;;14.47;74.69;96162.53;4998909;28;20254;-81
2022/10/09 10:55:55;;;;;;;4.15;3.47;;;;;;;14.43;74.65;96159.50;4991465;28;20199;-81
2022/10/09 10:58:29;;;;;;;4.43;3.75;;;;;;;14.39;74.48;96150.50;4991697;28;20224;-81
2022/10/09 11:01:13;;;;;;;4.15;3.67;;;;;;;14.42;74.74;96157.13;4990508;28;20203;-80
2022/10/09 11:04:09;;;;;;;4.25;3.67;;;;;;;14.39;74.26;96152.28;4996869;28;20223;-81
2022/10/09 11:06:44;;;;;;;6.05;4.25;;;;;;;14.40;75.34;96149.53;4980871;28;20203;-80
2022/10/09 11:09:19;;;;;;;6.65;5.20;;;;;;;14.58;74.58;96153.47;4991100;28;20215;-81
2022/10/09 11:11:51;;;;;;;5.18;3.92;;;;;;;14.62;73.64;96142.53;4991109;28;20288;-81
2022/10/09 11:14:30;;;;;;;6.68;3.33;;;;;;;14.58;74.27;96143.09;4990808;28;20203;-80
2022/10/09 11:17:05;;;;;;;3.83;3.42;;;;;;;14.67;74.17;96147.94;4990139;28;20199;-80
2022/10/09 11:19:59;;;;;;;3.50;3.15;;;;;;;14.73;73.74;96144.59;4990519;28;20221;-80
2022/10/09 11:22:46;;;;;;;3.10;2.80;;;;;;;14.66;73.04;96140.34;4988536;28;20202;-80
2022/10/09 11:25:29;;;;;;;5.47;2.80;;;;;;;14.55;74.16;96135.69;4991767;28;20218;-80
2022/10/09 11:28:03;;;;;;;3.30;2.92;;;;;;;14.57;73.73;96139.69;4990447;28;20199;-81
2022/10/09 11:30:37;;;;;;;3.95;3.53;;;;;;;14.59;73.61;96134.34;4994853;28;20668;-81
2022/10/09 11:33:17;;;;;;;3.97;2.83;;;;;;;14.75;73.92;96128.88;4990963;28;20195;-83
2022/10/09 11:35:46;;;;;;;3.75;3.22;;;;;;;14.86;73.09;96126.53;4993505;28;20214;-82
2022/10/09 11:38:24;;;;;;;3.80;3.22;;;;;;;14.94;73.53;96130.00;4994313;28;20556;-82
2022/10/09 11:40:53;;;;;;;5.82;3.20;;;;;;;15.05;73.29;96121.66;4994339;28;20199;-82
2022/10/09 11:43:38;;;;;;;3.30;3.00;;;;;;;15.04;72.68;96115.69;4995496;28;20196;-82